Cooper Hill, Missouri
Current Conditions -  °F | °C
As of 9:53 PM on Saturday 25 Oct 2014 (Local Time) from KVIH Reporting Station
Clear Clear  
Wind Chill: 59°   Ceiling: Unl
Heat Index: 59°   Visibility: 10mi
Dew Point: 53°   Wind: 3mph
Humidity: 81%   Direction: 70°ENE
Pressure: 30.02"   Gusts: NA
Location:  38.3239°N, 91.6268°W
Report Text: KVIH 260253Z AUTO 07003KT 10SM CLR 15/12 A3002 RMK AO2 SLP161 T01500117 50002
Loading
Personal Weather Stations






























Interactive Weather Map
Tropical Storm Tracking
New forecast layout! Learn more

10-Day Weather Forecast

Advertisements
Track Severe Weather on mobile